Allison, TX

6:07 AM CDT on August 28, 2014 (GMT -0500)
Hemphill County | Change Station
CLOSE
Current Station
Airport
Location: Canadian,
Elevation: 2395 ft
Nearby Weather Stations

Elev 2395 ft 35.89 °N, 100.40 °W | Updated 12 minutes ago

Scattered Clouds
Scattered Clouds
74 °F
Feels Like 74 °F
N
10
Wind Variable Wind from South

Today
High -- | Low -- °F
--% Chance of Precip.
Yesterday
High -- | Low -- °F
Precip. -- in
7:09 AM 8:13 PM
Waxing Crescent, 7% visible
Pressure 29.96 in
Visibility 10.0 miles
Clouds Scattered Clouds 10000 ft
Dew Point 66 °F
Humidity 76%
Rainfall 0.00 in
Snow Depth Not available.
UV 0 out of 12
Pollen 9.20 out of 12
Air Quality Not available.
Flu Activity Not available.
METAR KHHF 281055Z AUTO 19009KT 10SM SCT100 24/19 A2996 RMK AO2 T02350190

More Conditions Fewer Conditions

Pressure 29.96 in
Visibility 10.0 miles
Clouds Scattered Clouds 10000 ft
Dew Point 66 °F
Humidity 76%
Rainfall 0.00 in
Snow Depth Not available.
UV 0 out of 12
Pollen 9.20 out of 12
Air Quality Not available.
Flu Activity Not available.
METAR KHHF 281055Z AUTO 19009KT 10SM SCT100 24/19 A2996 RMK AO2 T02350190

More Conditions Fewer Conditions

Nowcast | as of 4:15 am CDT on August 28, 2014

Isolated showers continue to move east and northeast at 20 miles an hour across the southeastern Texas Panhandle through 6 am this morning. Most of the activity will stay southeast of a line from Allison to Hedley with rainfall amounts up to a tenth of an inch possible.

×

10-Day Weather Forecast

Almanac

Astronomy

Aug. 28, 2014 Rise Set
Actual Time 7:09 AM CDT 8:13 PM CDT
Civil Twilight 6:43 AM CDT 8:39 PM CDT
Nautical Twilight 6:12 AM CDT 9:10 PM CDT
Astronomical Twilight 5:40 AM CDT 9:42 PM CDT
Moon 9:56 AM CDT 9:46 PM CDT
Length of Visible Light 13h 55m
Length of Day
13h 03m
Tomorrow will be 2m 7s shorter.
Waxing Crescent, 7% of the Moon is Illuminated
Today
Waxing Crescent
Sep 2
First Quarter
Sep 8
Full
Sep 15
Last Quarter
Sep 24
New

Today's Extremes

State Highs State Lows

Community

WunderPhotos

Upload Photos

1,747,923 photos uploaded!

Nearby

Snow Depth

Station Depth Elevation
No new snow has been reported.

Earthquake Activity

City Distance Mag. Time & Date
No recent earthquake activity has been reported nearby.
Minimum magnitude displayed is 2.5.

Coastal Water Temperatures

Place Temperature
No Stations Reporting

Nearby Weather Stations